createdAt,value
2023-02-19T00:00:17.822Z,62.07
2023-02-19T00:01:17.779Z,62.10
2023-02-19T00:02:17.798Z,62.11
2023-02-19T00:03:17.819Z,62.14
2023-02-19T00:04:17.766Z,62.17
2023-02-19T00:05:17.758Z,62.22
2023-02-19T00:06:17.718Z,62.29
2023-02-19T00:07:17.726Z,62.35
2023-02-19T00:08:17.712Z,62.35
2023-02-19T00:09:17.689Z,62.42
2023-02-19T00:10:17.666Z,62.44
2023-02-19T00:11:17.674Z,62.42
2023-02-19T00:12:17.640Z,62.42
2023-02-19T00:13:17.645Z,62.42
2023-02-19T00:14:17.636Z,62.44
2023-02-19T00:15:17.616Z,62.47
2023-02-19T00:16:17.612Z,62.47
2023-02-19T00:17:17.585Z,62.48
2023-02-19T00:18:17.593Z,62.60
2023-02-19T00:19:17.551Z,62.49
2023-02-19T00:20:17.548Z,62.53
2023-02-19T00:21:17.548Z,62.56
2023-02-19T00:22:17.516Z,62.55
2023-02-19T00:23:17.522Z,62.55
2023-02-19T00:24:17.494Z,62.51
2023-02-19T00:25:17.478Z,62.58
2023-02-19T00:26:18.910Z,62.55
2023-02-19T00:27:17.458Z,62.45
2023-02-19T00:28:17.462Z,62.40
2023-02-19T00:29:17.498Z,62.43
2023-02-19T00:30:17.462Z,62.40
2023-02-19T00:31:17.485Z,62.47
2023-02-19T00:32:17.426Z,62.46
2023-02-19T00:33:17.409Z,62.47
2023-02-19T00:34:17.375Z,62.39
2023-02-19T00:35:17.361Z,62.40
2023-02-19T00:36:17.349Z,62.42
2023-02-19T00:37:17.367Z,62.44
2023-02-19T00:38:17.414Z,62.53
2023-02-19T00:39:17.319Z,62.54
2023-02-19T00:40:17.298Z,62.59
2023-02-19T00:41:17.289Z,62.54
2023-02-19T00:42:17.271Z,62.52
2023-02-19T00:43:17.295Z,62.56
2023-02-19T00:44:17.251Z,62.50
2023-02-19T00:45:17.247Z,62.60
2023-02-19T00:46:17.288Z,62.56
2023-02-19T00:47:17.236Z,62.60
2023-02-19T00:48:17.262Z,62.57
2023-02-19T00:49:17.205Z,62.64
2023-02-19T00:50:17.175Z,62.64
2023-02-19T00:51:17.166Z,62.66
2023-02-19T00:52:17.170Z,62.70
2023-02-19T00:53:17.179Z,62.77
2023-02-19T00:54:17.151Z,62.84
2023-02-19T00:55:17.154Z,62.86
2023-02-19T00:56:17.209Z,62.85
2023-02-19T00:57:17.113Z,62.90
2023-02-19T00:58:17.086Z,62.89
2023-02-19T00:59:17.106Z,62.89
2023-02-19T01:00:17.080Z,62.87
2023-02-19T01:01:17.089Z,62.91
2023-02-19T01:02:17.034Z,62.95
2023-02-19T01:03:17.030Z,62.97
2023-02-19T01:04:17.019Z,62.98
2023-02-19T01:05:16.989Z,63.03
2023-02-19T01:06:16.978Z,63.05
2023-02-19T01:07:16.997Z,63.08
2023-02-19T01:08:16.961Z,63.08
2023-02-19T01:09:16.973Z,63.00
2023-02-19T01:10:16.948Z,63.04
2023-02-19T01:11:16.917Z,63.00
2023-02-19T01:12:16.892Z,63.04
2023-02-19T01:13:16.902Z,63.12
2023-02-19T01:14:16.874Z,63.13
2023-02-19T01:15:16.888Z,63.12
2023-02-19T01:16:16.923Z,63.10
2023-02-19T01:17:16.893Z,63.14
2023-02-19T01:18:16.908Z,63.19
2023-02-19T01:19:16.817Z,63.19
2023-02-19T01:20:16.808Z,63.18
2023-02-19T01:21:16.845Z,63.17
2023-02-19T01:22:16.777Z,63.18
2023-02-19T01:23:16.782Z,63.47
2023-02-19T01:24:16.797Z,63.50
2023-02-19T01:25:16.820Z,63.59
2023-02-19T01:26:16.721Z,63.57
2023-02-19T01:27:16.755Z,63.46
2023-02-19T01:28:16.714Z,63.32
2023-02-19T01:29:16.725Z,63.31
2023-02-19T01:30:16.739Z,63.52
2023-02-19T01:31:16.782Z,63.42
2023-02-19T01:32:16.742Z,63.42
2023-02-19T01:33:16.648Z,63.31
2023-02-19T01:34:16.657Z,63.30
2023-02-19T01:35:16.637Z,63.30
2023-02-19T01:36:16.616Z,63.26
2023-02-19T01:37:16.627Z,63.26
2023-02-19T01:38:16.592Z,63.39
2023-02-19T01:39:16.591Z,63.39
2023-02-19T01:40:16.558Z,63.46
2023-02-19T01:41:16.558Z,63.57
2023-02-19T01:42:16.563Z,63.72
2023-02-19T01:43:16.554Z,63.66
2023-02-19T01:44:16.505Z,63.80
2023-02-19T01:45:16.542Z,63.76
2023-02-19T01:46:16.517Z,63.86
2023-02-19T01:47:16.487Z,64.03
2023-02-19T01:48:16.464Z,63.90
2023-02-19T01:49:16.437Z,64.05
2023-02-19T01:50:16.431Z,64.04
2023-02-19T01:51:16.425Z,64.05
2023-02-19T01:52:16.428Z,63.99
2023-02-19T01:53:16.397Z,63.94
2023-02-19T01:54:16.380Z,63.92
2023-02-19T01:55:16.391Z,63.89
2023-02-19T01:56:16.367Z,63.87
2023-02-19T01:57:16.410Z,63.88
2023-02-19T01:58:16.360Z,63.86
2023-02-19T01:59:16.347Z,63.78
2023-02-19T02:00:16.304Z,63.79
2023-02-19T02:01:16.301Z,63.84
2023-02-19T02:02:16.302Z,63.76
2023-02-19T02:03:16.266Z,63.83
2023-02-19T02:04:16.292Z,63.87
2023-02-19T02:05:16.237Z,63.75
2023-02-19T02:06:16.273Z,64.00
2023-02-19T02:07:16.219Z,64.09
2023-02-19T02:08:16.207Z,64.17
2023-02-19T02:09:16.216Z,64.15
2023-02-19T02:10:16.212Z,64.32
2023-02-19T02:11:16.184Z,64.30
2023-02-19T02:12:16.142Z,64.42
2023-02-19T02:13:16.192Z,64.62
2023-02-19T02:14:16.197Z,64.57
2023-02-19T02:15:16.140Z,64.69
2023-02-19T02:16:16.177Z,65.16
2023-02-19T02:17:16.104Z,65.36
2023-02-19T02:18:16.102Z,65.60
2023-02-19T02:19:16.067Z,65.84
2023-02-19T02:20:16.083Z,66.19
2023-02-19T02:21:16.060Z,65.96
2023-02-19T02:22:16.027Z,66.26
2023-02-19T02:23:16.018Z,66.56
2023-02-19T02:24:16.062Z,66.72
2023-02-19T02:25:16.000Z,66.71
2023-02-19T02:26:15.998Z,67.29
2023-02-19T02:27:15.965Z,67.78
2023-02-19T02:28:15.966Z,68.21
2023-02-19T02:29:15.935Z,68.18
2023-02-19T02:30:15.972Z,68.46
2023-02-19T02:31:16.041Z,69.14
2023-02-19T02:32:16.045Z,69.26
2023-02-19T02:33:15.893Z,69.50
2023-02-19T02:34:15.912Z,69.63
2023-02-19T02:35:15.879Z,69.88
2023-02-19T02:36:15.846Z,69.92
2023-02-19T02:37:15.850Z,69.81
2023-02-19T02:38:15.822Z,70.52
2023-02-19T02:39:15.833Z,70.92
2023-02-19T02:40:15.799Z,70.93
2023-02-19T02:41:15.797Z,71.17
2023-02-19T02:42:15.775Z,71.42
2023-02-19T02:43:15.805Z,71.68
2023-02-19T02:44:15.746Z,71.71
2023-02-19T02:45:15.738Z,71.71
2023-02-19T02:46:15.725Z,71.71
2023-02-19T02:47:15.713Z,72.16
2023-02-19T02:48:15.724Z,72.10
2023-02-19T02:49:15.681Z,72.15
2023-02-19T02:50:15.671Z,72.50
2023-02-19T02:51:15.725Z,72.74
2023-02-19T02:52:15.640Z,72.98
2023-02-19T02:53:15.640Z,73.41
2023-02-19T02:54:15.651Z,73.92
2023-02-19T02:55:15.628Z,74.89
2023-02-19T02:56:15.597Z,74.91
2023-02-19T02:57:15.584Z,75.45
2023-02-19T02:58:15.580Z,75.04
2023-02-19T02:59:15.577Z,75.36
2023-02-19T03:00:15.559Z,76.12
2023-02-19T03:01:15.574Z,76.37
2023-02-19T03:02:15.585Z,76.43
2023-02-19T03:03:15.527Z,76.69
2023-02-19T03:04:15.519Z,77.26
2023-02-19T03:05:15.482Z,77.54
2023-02-19T03:06:15.493Z,77.19
2023-02-19T03:07:15.470Z,77.38
2023-02-19T03:08:15.447Z,77.28
2023-02-19T03:09:15.452Z,77.57
2023-02-19T03:10:15.420Z,77.80
2023-02-19T03:11:15.419Z,77.75
2023-02-19T03:12:15.398Z,77.93
2023-02-19T03:13:15.431Z,77.79
2023-02-19T03:14:15.381Z,77.86
2023-02-19T03:15:15.369Z,78.14
2023-02-19T03:16:15.383Z,78.44
2023-02-19T03:17:15.366Z,78.71
2023-02-19T03:18:15.355Z,79.12
2023-02-19T03:19:15.341Z,79.51
2023-02-19T03:20:15.299Z,79.89
2023-02-19T03:21:15.293Z,80.01
2023-02-19T03:22:15.276Z,79.99
2023-02-19T03:23:15.275Z,80.21
2023-02-19T03:24:15.262Z,80.34
2023-02-19T03:25:15.245Z,80.64
2023-02-19T03:26:15.224Z,80.90
2023-02-19T03:27:15.239Z,81.20
2023-02-19T03:28:15.200Z,81.51
2023-02-19T03:29:15.220Z,81.62
2023-02-19T03:30:15.222Z,81.92
2023-02-19T03:31:15.258Z,82.16
2023-02-19T03:32:15.185Z,82.29
2023-02-19T03:33:15.137Z,82.46
2023-02-19T03:34:15.121Z,82.76
2023-02-19T03:35:15.133Z,82.60
2023-02-19T03:36:15.096Z,82.66
2023-02-19T03:37:15.103Z,82.90
2023-02-19T03:38:15.091Z,83.25
2023-02-19T03:39:15.063Z,83.37
2023-02-19T03:40:15.053Z,83.46
2023-02-19T03:41:15.054Z,83.57
2023-02-19T03:42:15.021Z,83.64
2023-02-19T03:43:15.030Z,83.79
2023-02-19T03:44:14.998Z,83.85
2023-02-19T03:45:15.005Z,84.07
2023-02-19T03:46:14.969Z,84.28
2023-02-19T03:47:14.965Z,84.33
2023-02-19T03:48:14.942Z,84.40
2023-02-19T03:49:14.933Z,84.57
2023-02-19T03:50:14.937Z,84.71
2023-02-19T03:51:14.914Z,84.87
2023-02-19T03:52:14.909Z,84.99
2023-02-19T03:53:14.881Z,85.07
2023-02-19T03:54:14.865Z,85.19
2023-02-19T03:55:14.866Z,85.32
2023-02-19T03:56:14.864Z,85.44
2023-02-19T03:57:14.852Z,85.59
2023-02-19T03:58:14.819Z,85.67
2023-02-19T03:59:14.851Z,85.73
2023-02-19T04:00:14.811Z,85.84
2023-02-19T04:01:14.795Z,85.91
2023-02-19T04:02:14.809Z,85.92
2023-02-19T04:03:14.753Z,85.89
2023-02-19T04:04:14.750Z,85.94
2023-02-19T04:05:14.766Z,86.08
2023-02-19T04:06:14.773Z,86.15
2023-02-19T04:07:14.723Z,86.24
2023-02-19T04:08:14.691Z,86.27
2023-02-19T04:09:14.691Z,86.28
2023-02-19T04:10:14.668Z,86.31
2023-02-19T04:11:14.657Z,86.39
2023-02-19T04:12:14.666Z,86.45
2023-02-19T04:13:14.635Z,86.46
2023-02-19T04:14:14.620Z,86.40
2023-02-19T04:15:14.598Z,86.41
2023-02-19T04:16:14.633Z,86.49
2023-02-19T04:17:14.574Z,86.58
2023-02-19T04:18:14.562Z,86.58
2023-02-19T04:19:14.547Z,86.65
2023-02-19T04:20:14.590Z,86.65
2023-02-19T04:21:14.530Z,86.64
2023-02-19T04:22:14.509Z,86.67
2023-02-19T04:23:14.508Z,86.67
2023-02-19T04:24:14.486Z,86.66
2023-02-19T04:25:14.497Z,86.68
2023-02-19T04:26:14.474Z,86.70
2023-02-19T04:27:14.451Z,86.74
2023-02-19T04:28:14.453Z,86.75
2023-02-19T04:29:14.435Z,86.79
2023-02-19T04:30:14.451Z,86.78
2023-02-19T04:31:14.888Z,86.74
2023-02-19T04:32:14.416Z,86.63
2023-02-19T04:33:14.383Z,86.52
2023-02-19T04:34:14.349Z,86.52
2023-02-19T04:35:14.474Z,86.52
2023-02-19T04:36:14.353Z,86.60
2023-02-19T04:37:14.315Z,86.68
2023-02-19T04:38:14.300Z,86.72
2023-02-19T04:39:14.284Z,86.61
2023-02-19T04:40:14.277Z,86.56
2023-02-19T04:41:14.272Z,86.55
2023-02-19T04:42:14.262Z,86.51
2023-02-19T04:43:14.232Z,86.46
2023-02-19T04:44:14.213Z,86.36
2023-02-19T04:45:14.217Z,86.36
2023-02-19T04:46:14.271Z,86.36
2023-02-19T04:47:14.187Z,86.33
2023-02-19T04:48:14.240Z,86.29
2023-02-19T04:49:14.185Z,86.24
2023-02-19T04:50:14.136Z,86.17
2023-02-19T04:51:14.135Z,86.14
2023-02-19T04:52:14.126Z,86.12
2023-02-19T04:53:14.089Z,86.09
2023-02-19T04:54:14.078Z,86.07
2023-02-19T04:55:14.091Z,86.07
2023-02-19T04:56:14.051Z,86.00
2023-02-19T04:57:14.051Z,85.80
2023-02-19T04:58:14.042Z,85.74
2023-02-19T04:59:14.025Z,85.74
2023-02-19T05:00:13.999Z,85.77
2023-02-19T05:01:14.424Z,85.82
2023-02-19T05:02:14.040Z,85.80
2023-02-19T05:03:13.979Z,85.79
2023-02-19T05:04:14.001Z,85.70
2023-02-19T05:05:13.948Z,85.60
2023-02-19T05:06:13.921Z,85.50
2023-02-19T05:07:13.936Z,85.49
2023-02-19T05:08:13.901Z,85.41
2023-02-19T05:09:13.880Z,85.37
2023-02-19T05:10:13.900Z,85.33
2023-02-19T05:11:13.885Z,85.31
2023-02-19T05:12:13.872Z,85.32
2023-02-19T05:13:13.910Z,85.30
2023-02-19T05:14:13.822Z,85.21
2023-02-19T05:15:13.794Z,85.23
2023-02-19T05:16:13.903Z,85.21
2023-02-19T05:17:14.075Z,85.17
2023-02-19T05:18:13.816Z,85.20
2023-02-19T05:19:13.774Z,85.10
2023-02-19T05:20:13.814Z,84.99
2023-02-19T05:21:13.845Z,84.90
2023-02-19T05:22:13.733Z,84.72
2023-02-19T05:23:13.747Z,84.73
2023-02-19T05:24:13.690Z,84.74
2023-02-19T05:25:13.671Z,84.68
2023-02-19T05:26:13.658Z,84.56
2023-02-19T05:27:13.659Z,84.57
2023-02-19T05:28:13.852Z,84.57
2023-02-19T05:29:13.637Z,84.53
2023-02-19T05:30:13.704Z,84.31
2023-02-19T05:32:59.570Z,83.79
2023-02-19T05:34:00.467Z,83.95
2023-02-19T05:35:00.439Z,83.89
2023-02-19T05:36:00.391Z,83.88
2023-02-19T05:37:00.448Z,83.78
2023-02-19T05:38:00.372Z,83.74
2023-02-19T05:39:00.350Z,83.56
2023-02-19T05:40:00.327Z,83.63
2023-02-19T05:41:00.310Z,83.78
2023-02-19T05:42:00.297Z,83.75
2023-02-19T05:43:00.301Z,83.65
2023-02-19T05:44:00.297Z,83.67
2023-02-19T05:45:00.326Z,83.62
2023-02-19T05:46:00.295Z,83.50
2023-02-19T05:47:00.309Z,83.40
2023-02-19T05:48:00.269Z,83.23
2023-02-19T05:49:00.211Z,83.16
2023-02-19T05:50:00.234Z,83.18
2023-02-19T05:51:00.216Z,82.94
2023-02-19T05:52:00.195Z,82.89
2023-02-19T05:53:00.202Z,82.83
2023-02-19T05:54:00.188Z,82.82
2023-02-19T05:55:00.130Z,82.86
2023-02-19T05:56:00.183Z,82.77
2023-02-19T05:57:08.030Z,82.64
2023-02-19T05:58:00.159Z,82.38
2023-02-19T05:59:00.100Z,82.33
2023-02-19T06:00:00.096Z,82.39
2023-02-19T06:01:13.242Z,82.22
2023-02-19T06:02:00.829Z,82.23
2023-02-19T06:03:00.156Z,82.20
2023-02-19T06:04:00.123Z,82.09
2023-02-19T06:05:00.089Z,81.98
2023-02-19T06:06:00.021Z,82.00
2023-02-19T06:07:12.273Z,82.00
2023-02-19T06:08:00.099Z,82.11
2023-02-19T06:08:59.984Z,82.05
2023-02-19T06:10:00.058Z,82.06
2023-02-19T06:10:59.932Z,82.12
2023-02-19T06:12:00.031Z,81.98
2023-02-19T06:13:00.755Z,81.94
2023-02-19T06:14:00.247Z,81.71
2023-02-19T06:14:59.960Z,81.85
2023-02-19T06:15:59.988Z,81.96
2023-02-19T06:18:13.362Z,81.53
2023-02-19T06:19:14.412Z,81.53
2023-02-19T06:20:14.344Z,81.55
2023-02-19T06:21:14.347Z,81.51
2023-02-19T06:22:14.323Z,81.40
2023-02-19T06:23:14.322Z,81.28
2023-02-19T06:24:14.316Z,81.01
2023-02-19T06:25:14.314Z,80.85
2023-02-19T06:26:14.312Z,80.88
2023-02-19T06:27:14.273Z,80.90
2023-02-19T06:28:14.219Z,81.15
2023-02-19T06:29:14.215Z,81.30
2023-02-19T06:30:14.249Z,81.48
2023-02-19T06:31:14.673Z,81.15
2023-02-19T06:32:14.270Z,80.97
2023-02-19T06:33:14.171Z,81.07
2023-02-19T06:34:14.142Z,80.78
2023-02-19T06:35:14.149Z,80.73
2023-02-19T06:36:14.140Z,80.85
2023-02-19T06:37:14.109Z,80.81
2023-02-19T06:38:14.119Z,81.01
2023-02-19T06:39:14.114Z,80.91
2023-02-19T06:40:14.073Z,80.88
2023-02-19T06:41:14.544Z,80.67
2023-02-19T06:42:14.035Z,80.70
2023-02-19T06:43:14.063Z,80.81
2023-02-19T06:44:14.033Z,80.92
2023-02-19T06:45:14.009Z,80.48
2023-02-19T06:46:14.135Z,80.53
2023-02-19T06:47:13.978Z,80.26
2023-02-19T06:48:13.962Z,80.26
2023-02-19T06:49:13.956Z,80.37
2023-02-19T06:50:13.954Z,80.42
2023-02-19T06:51:13.974Z,80.24
2023-02-19T06:52:13.914Z,80.38
2023-02-19T06:53:13.905Z,80.59
2023-02-19T06:54:13.888Z,80.40
2023-02-19T06:55:13.886Z,80.11
2023-02-19T06:56:13.885Z,80.16
2023-02-19T06:57:13.855Z,80.03
2023-02-19T06:58:13.834Z,79.97
2023-02-19T06:59:13.826Z,80.22
2023-02-19T07:00:13.832Z,80.08
2023-02-19T07:01:14.037Z,79.88
2023-02-19T07:02:13.812Z,79.79
2023-02-19T07:03:13.807Z,79.94
2023-02-19T07:04:13.840Z,79.86
2023-02-19T07:05:13.762Z,79.82
2023-02-19T07:06:13.762Z,79.95
2023-02-19T07:07:13.726Z,79.85
2023-02-19T07:08:13.989Z,80.00
2023-02-19T07:09:13.698Z,79.83
2023-02-19T07:10:13.673Z,79.90
2023-02-19T07:11:13.672Z,79.87
2023-02-19T07:12:13.664Z,79.77
2023-02-19T07:13:13.639Z,79.80
2023-02-19T07:14:13.628Z,79.96
2023-02-19T07:15:13.642Z,79.77
2023-02-19T07:16:13.687Z,79.55
2023-02-19T07:17:13.614Z,79.48
2023-02-19T07:18:13.572Z,79.62
2023-02-19T07:19:13.594Z,79.56
2023-02-19T07:20:13.560Z,79.67
2023-02-19T07:21:13.796Z,79.82
2023-02-19T07:22:13.536Z,79.81
2023-02-19T07:23:13.572Z,79.75
2023-02-19T07:24:13.500Z,79.66
2023-02-19T07:25:13.548Z,79.89
2023-02-19T07:26:13.500Z,80.20
2023-02-19T07:27:13.503Z,80.33
2023-02-19T07:28:13.473Z,80.51
2023-02-19T07:29:13.446Z,80.64
2023-02-19T07:30:13.479Z,80.74
2023-02-19T07:31:13.919Z,80.64
2023-02-19T07:32:13.409Z,80.79
2023-02-19T07:33:13.391Z,80.86
2023-02-19T07:34:13.419Z,80.69
2023-02-19T07:35:13.386Z,80.84
2023-02-19T07:36:13.350Z,81.00
2023-02-19T07:37:13.352Z,80.92
2023-02-19T07:38:13.355Z,80.94
2023-02-19T07:39:13.333Z,80.86
2023-02-19T07:40:13.293Z,80.89
2023-02-19T07:41:13.648Z,81.01
2023-02-19T07:42:13.269Z,81.11
2023-02-19T07:43:13.282Z,81.14
2023-02-19T07:44:13.259Z,81.13
2023-02-19T07:45:13.268Z,81.10
2023-02-19T07:46:13.245Z,81.12
2023-02-19T07:47:13.239Z,81.17
2023-02-19T07:48:13.233Z,81.16
2023-02-19T07:49:13.202Z,81.14
2023-02-19T07:50:14.076Z,81.17
2023-02-19T07:51:13.520Z,81.12
2023-02-19T07:52:13.360Z,81.09
2023-02-19T07:53:13.140Z,81.08
2023-02-19T07:54:13.116Z,81.07
2023-02-19T07:55:13.143Z,81.14
2023-02-19T07:56:13.098Z,81.15
2023-02-19T07:57:13.141Z,81.23
2023-02-19T07:58:13.116Z,81.38
2023-02-19T07:59:13.098Z,81.41
2023-02-19T08:00:13.042Z,81.31
2023-02-19T08:01:13.458Z,81.19
2023-02-19T08:02:13.045Z,81.31
2023-02-19T08:03:13.051Z,81.34
2023-02-19T08:04:13.013Z,81.25
2023-02-19T08:05:12.996Z,81.14
2023-02-19T08:06:12.970Z,81.04
2023-02-19T08:07:12.979Z,80.93
2023-02-19T08:08:12.962Z,80.95
2023-02-19T08:09:12.959Z,81.05
2023-02-19T08:10:12.923Z,81.12
2023-02-19T08:11:13.194Z,81.11
2023-02-19T08:12:12.888Z,81.26
2023-02-19T08:13:12.878Z,81.32
2023-02-19T08:14:12.879Z,81.32
2023-02-19T08:15:13.187Z,81.22
2023-02-19T08:16:20.003Z,81.26
2023-02-19T08:17:12.899Z,81.23
2023-02-19T08:18:12.813Z,81.25
2023-02-19T08:19:12.814Z,81.13
2023-02-19T08:20:12.794Z,81.18
2023-02-19T08:21:12.790Z,81.25
2023-02-19T08:22:12.803Z,81.33
2023-02-19T08:23:12.838Z,81.26
2023-02-19T08:24:12.780Z,81.32
2023-02-19T08:25:12.732Z,81.43
2023-02-19T08:26:12.712Z,81.67
2023-02-19T08:27:12.746Z,81.74
2023-02-19T08:28:12.741Z,81.81
2023-02-19T08:29:12.682Z,81.90
2023-02-19T08:30:12.762Z,81.99
2023-02-19T08:31:13.097Z,82.02
2023-02-19T08:32:12.665Z,82.04
2023-02-19T08:33:12.629Z,82.09
2023-02-19T08:34:12.618Z,82.04
2023-02-19T08:35:12.615Z,81.91
2023-02-19T08:36:12.587Z,81.91
2023-02-19T08:37:12.586Z,81.97
2023-02-19T08:38:12.591Z,81.89
2023-02-19T08:39:12.554Z,81.78
2023-02-19T08:40:12.557Z,81.82
2023-02-19T08:41:12.898Z,81.86
2023-02-19T08:42:12.532Z,81.86
2023-02-19T08:43:12.493Z,81.79
2023-02-19T08:44:12.508Z,81.74
2023-02-19T08:45:12.470Z,81.28
2023-02-19T08:46:12.493Z,81.27
2023-02-19T08:47:12.463Z,81.33
2023-02-19T08:48:12.421Z,81.44
2023-02-19T08:49:12.425Z,81.50
2023-02-19T08:50:12.450Z,81.49
2023-02-19T08:51:12.815Z,81.26
2023-02-19T08:52:12.408Z,81.23
2023-02-19T08:53:12.367Z,81.22
2023-02-19T08:54:12.354Z,81.31
2023-02-19T08:55:12.344Z,81.21
2023-02-19T08:56:12.365Z,81.17
2023-02-19T08:57:12.342Z,81.27
2023-02-19T08:58:12.301Z,81.26
2023-02-19T08:59:12.333Z,81.31
2023-02-19T09:00:12.285Z,81.29
2023-02-19T09:01:12.764Z,81.18
2023-02-19T09:02:12.277Z,81.08
2023-02-19T09:03:12.247Z,80.97
2023-02-19T09:04:12.272Z,80.88
2023-02-19T09:05:12.212Z,80.96
2023-02-19T09:06:12.482Z,81.01
2023-02-19T09:07:12.206Z,81.05
2023-02-19T09:08:12.198Z,81.07
2023-02-19T09:09:12.155Z,81.09
2023-02-19T09:10:12.147Z,81.20
2023-02-19T09:11:12.504Z,81.24
2023-02-19T09:12:12.135Z,81.31
2023-02-19T09:13:12.114Z,81.25
2023-02-19T09:14:12.095Z,81.29
2023-02-19T09:15:12.082Z,81.26
2023-02-19T09:16:12.101Z,81.22
2023-02-19T09:17:12.054Z,81.16
2023-02-19T09:18:12.061Z,81.05
2023-02-19T09:19:12.032Z,80.82
2023-02-19T09:20:12.042Z,80.64
2023-02-19T09:21:12.446Z,80.45
2023-02-19T09:22:12.002Z,80.50
2023-02-19T09:23:11.995Z,80.49
2023-02-19T09:24:11.994Z,80.30
2023-02-19T09:25:11.977Z,80.31
2023-02-19T09:26:11.960Z,80.19
2023-02-19T09:27:11.937Z,80.00
2023-02-19T09:28:11.925Z,79.62
2023-02-19T09:29:11.906Z,79.56
2023-02-19T09:30:11.930Z,79.01
2023-02-19T09:31:12.294Z,78.50
2023-02-19T09:32:11.964Z,78.47
2023-02-19T09:33:11.851Z,78.39
2023-02-19T09:34:11.865Z,78.22
2023-02-19T09:35:11.846Z,78.09
2023-02-19T09:36:11.836Z,78.19
2023-02-19T09:37:11.807Z,78.24
2023-02-19T09:38:11.800Z,78.32
2023-02-19T09:39:11.783Z,78.22
2023-02-19T09:40:11.768Z,78.19
2023-02-19T09:41:12.093Z,77.92
2023-02-19T09:42:11.750Z,77.71
2023-02-19T09:43:11.744Z,77.49
2023-02-19T09:44:11.738Z,77.35
2023-02-19T09:45:11.711Z,77.11
2023-02-19T09:46:11.755Z,76.84
2023-02-19T09:47:11.683Z,76.20
2023-02-19T09:48:11.664Z,76.15
2023-02-19T09:49:11.749Z,76.09
2023-02-19T09:50:11.648Z,76.03
2023-02-19T09:51:11.921Z,76.00
2023-02-19T09:52:11.631Z,75.97
2023-02-19T09:53:11.602Z,76.12
2023-02-19T09:54:11.634Z,75.87
2023-02-19T09:55:11.580Z,75.54
2023-02-19T09:56:11.571Z,75.48
2023-02-19T09:57:11.585Z,74.75
2023-02-19T09:58:11.620Z,73.85
2023-02-19T09:59:11.525Z,73.64
2023-02-19T10:00:11.523Z,74.02
2023-02-19T10:01:11.997Z,74.05
2023-02-19T10:02:11.539Z,73.67
2023-02-19T10:03:11.467Z,73.75
2023-02-19T10:04:11.458Z,73.32
2023-02-19T10:05:11.513Z,73.15
2023-02-19T10:06:11.588Z,73.14
2023-02-19T10:07:11.455Z,73.34
2023-02-19T10:08:11.430Z,73.23
2023-02-19T10:09:11.415Z,73.18
2023-02-19T10:10:11.392Z,73.52
2023-02-19T10:11:11.685Z,73.67
2023-02-19T10:12:11.357Z,73.16
2023-02-19T10:13:11.360Z,73.13
2023-02-19T10:14:11.349Z,73.42
2023-02-19T10:15:11.325Z,73.61
2023-02-19T10:16:11.366Z,73.71
2023-02-19T10:17:11.295Z,73.13
2023-02-19T10:18:11.402Z,72.57
2023-02-19T10:19:11.286Z,72.58
2023-02-19T10:20:11.271Z,71.91
2023-02-19T10:21:11.761Z,71.31
2023-02-19T10:22:11.253Z,71.11
2023-02-19T10:23:11.247Z,70.57
2023-02-19T10:24:11.218Z,70.19
2023-02-19T10:25:11.190Z,69.82
2023-02-19T10:26:11.189Z,69.97
2023-02-19T10:27:11.198Z,69.28
2023-02-19T10:28:11.176Z,68.74
2023-02-19T10:29:11.144Z,68.64
2023-02-19T10:30:11.166Z,68.58
2023-02-19T10:31:11.414Z,68.54
2023-02-19T10:32:11.141Z,68.16
2023-02-19T10:33:11.126Z,68.16
2023-02-19T10:34:11.087Z,68.19
2023-02-19T10:35:11.068Z,68.33
2023-02-19T10:36:11.063Z,68.17
2023-02-19T10:37:11.041Z,68.04
2023-02-19T10:38:11.037Z,68.06
2023-02-19T10:39:11.026Z,68.15
2023-02-19T10:40:11.010Z,68.52
2023-02-19T10:41:11.263Z,68.70
2023-02-19T10:42:10.983Z,67.74
2023-02-19T10:43:10.974Z,67.34
2023-02-19T10:44:10.980Z,67.36
2023-02-19T10:45:10.946Z,67.13
2023-02-19T10:46:10.934Z,67.06
2023-02-19T10:47:10.928Z,66.81
2023-02-19T10:48:10.910Z,66.85
2023-02-19T10:49:10.894Z,66.42
2023-02-19T10:50:10.910Z,66.20
2023-02-19T10:51:11.214Z,66.80
2023-02-19T10:52:10.850Z,66.22
2023-02-19T10:53:10.852Z,66.07
2023-02-19T10:54:10.843Z,64.93
2023-02-19T10:55:10.817Z,64.82
2023-02-19T10:56:10.829Z,64.55
2023-02-19T10:57:10.818Z,64.16
2023-02-19T10:58:10.790Z,63.64
2023-02-19T10:59:10.784Z,62.62
2023-02-19T11:00:10.773Z,62.29
2023-02-19T11:01:11.092Z,61.63
2023-02-19T11:02:10.725Z,61.72
2023-02-19T11:03:10.727Z,61.39
2023-02-19T11:04:10.746Z,61.42
2023-02-19T11:05:10.690Z,61.71
2023-02-19T11:06:10.688Z,61.66
2023-02-19T11:07:10.683Z,61.38
2023-02-19T11:08:10.680Z,60.99
2023-02-19T11:09:10.643Z,61.05
2023-02-19T11:10:10.648Z,61.71
2023-02-19T11:11:10.851Z,60.95
2023-02-19T11:12:10.622Z,60.78
2023-02-19T11:13:10.621Z,60.75
2023-02-19T11:14:10.606Z,61.10
2023-02-19T11:15:10.588Z,61.79
2023-02-19T11:16:10.580Z,61.39
2023-02-19T11:17:10.564Z,61.07
2023-02-19T11:18:10.584Z,61.32
2023-02-19T11:19:10.539Z,61.16
2023-02-19T11:20:10.528Z,60.87
2023-02-19T11:21:10.793Z,60.98
2023-02-19T11:22:10.505Z,61.15
2023-02-19T11:23:10.474Z,61.50
2023-02-19T11:24:10.457Z,61.48
2023-02-19T11:25:10.459Z,61.46
2023-02-19T11:26:10.444Z,61.89
2023-02-19T11:27:10.419Z,61.44
2023-02-19T11:28:10.415Z,61.60
2023-02-19T11:29:10.432Z,61.25
2023-02-19T11:30:10.411Z,61.80
2023-02-19T11:31:11.150Z,62.16
2023-02-19T11:32:10.435Z,62.22
2023-02-19T11:33:10.369Z,62.25
2023-02-19T11:34:10.332Z,62.65
2023-02-19T11:35:10.353Z,62.65
2023-02-19T11:36:10.330Z,62.47
2023-02-19T11:37:10.297Z,62.05
2023-02-19T11:38:10.309Z,62.14
2023-02-19T11:39:10.308Z,62.57
2023-02-19T11:40:10.281Z,62.58
2023-02-19T11:41:10.906Z,62.59
2023-02-19T11:42:10.243Z,62.70
2023-02-19T11:43:10.266Z,62.59
2023-02-19T11:44:10.213Z,63.06
2023-02-19T11:45:10.235Z,63.00
2023-02-19T11:46:10.203Z,63.12
2023-02-19T11:47:10.182Z,63.24
2023-02-19T11:48:10.167Z,63.20
2023-02-19T11:49:10.179Z,63.13
2023-02-19T11:50:10.175Z,63.40
2023-02-19T11:51:10.458Z,63.12
2023-02-19T11:52:10.116Z,63.17
2023-02-19T11:53:10.135Z,63.06
2023-02-19T11:54:10.096Z,63.27
2023-02-19T11:55:10.099Z,63.55
2023-02-19T11:56:10.083Z,64.06
2023-02-19T11:57:10.055Z,63.82
2023-02-19T11:58:10.066Z,64.22
2023-02-19T11:59:10.025Z,64.07
2023-02-19T12:00:10.035Z,63.74
2023-02-19T12:01:10.395Z,63.89
2023-02-19T12:02:10.074Z,63.57
2023-02-19T12:03:09.980Z,63.65
2023-02-19T12:04:09.971Z,62.91
2023-02-19T12:05:10.001Z,62.74
2023-02-19T12:06:10.431Z,62.53
2023-02-19T12:07:09.939Z,62.08
2023-02-19T12:08:09.928Z,62.02
2023-02-19T12:09:09.931Z,62.16
2023-02-19T12:10:09.901Z,61.84
2023-02-19T12:11:09.893Z,62.05
2023-02-19T12:12:09.904Z,61.68
2023-02-19T12:13:09.859Z,61.57
2023-02-19T12:14:09.850Z,60.78
2023-02-19T12:15:09.841Z,61.15
2023-02-19T12:16:09.921Z,61.07
2023-02-19T12:17:09.806Z,61.07
2023-02-19T12:18:09.798Z,60.92
2023-02-19T12:19:09.815Z,60.37
2023-02-19T12:20:09.801Z,60.54
2023-02-19T12:21:10.046Z,60.47
2023-02-19T12:22:09.750Z,60.29
2023-02-19T12:23:09.730Z,61.00
2023-02-19T12:24:09.751Z,60.63
2023-02-19T12:25:09.724Z,60.87
2023-02-19T12:26:10.101Z,60.78
2023-02-19T12:27:09.708Z,60.92
2023-02-19T12:28:09.672Z,60.68
2023-02-19T12:29:09.660Z,60.62
2023-02-19T12:30:09.669Z,60.51
2023-02-19T12:31:09.717Z,60.27
2023-02-19T12:32:09.758Z,60.18
2023-02-19T12:33:09.641Z,59.74
2023-02-19T12:34:09.615Z,60.12
2023-02-19T12:35:09.600Z,60.47
2023-02-19T12:36:09.872Z,60.27
2023-02-19T12:37:09.564Z,60.68
2023-02-19T12:38:09.573Z,61.04
2023-02-19T12:39:09.554Z,60.82
2023-02-19T12:40:09.516Z,61.03
2023-02-19T12:41:09.515Z,61.09
2023-02-19T12:42:09.513Z,61.11
2023-02-19T12:43:09.485Z,61.27
2023-02-19T12:44:09.469Z,61.68
2023-02-19T12:45:09.464Z,61.85
2023-02-19T12:46:09.906Z,61.54
2023-02-19T12:47:09.434Z,61.83
2023-02-19T12:48:09.449Z,62.22
2023-02-19T12:49:09.408Z,62.32
2023-02-19T12:50:09.422Z,62.49
2023-02-19T12:51:09.400Z,63.32
2023-02-19T12:52:09.388Z,63.33
2023-02-19T12:53:09.378Z,63.55
2023-02-19T12:54:09.361Z,63.63
2023-02-19T12:55:09.346Z,63.96